Time;durP1;ratioP1;P1;durP2;ratioP2;P2;SDS_P1;SDS_P2;PMS_P1;PMS_P2;Temp;Humidity;BMP_temperature;BMP_pressure;BME280_temperature;BME280_humidity;BME280_pressure;Samples;Min_cycle;Max_cycle;Signal;HPM_P1;HPM_P2
2021/11/23 00:00:44;;;;;;;28.45;16.92;;;;;;;-0.80;95.40;102469.38;4993189;28;20089;-50
2021/11/23 00:03:13;;;;;;;25.15;16.83;;;;;;;-0.80;95.14;102481.38;4993278;28;20060;-49
2021/11/23 00:05:41;;;;;;;25.02;16.40;;;;;;;-0.84;94.88;102467.75;4993374;28;20042;-47
2021/11/23 00:08:09;;;;;;;25.95;17.65;;;;;;;-0.81;95.44;102479.69;4992954;28;20137;-48
2021/11/23 00:10:42;;;;;;;28.15;18.80;;;;;;;-0.52;95.00;102482.38;4992892;28;20054;-48
2021/11/23 00:13:13;;;;;;;28.23;18.73;;;;;;;-0.54;95.61;102480.72;4992238;28;20061;-51
2021/11/23 00:15:42;;;;;;;26.48;18.30;;;;;;;-0.49;94.71;102473.75;4992398;28;20069;-50
2021/11/23 00:18:12;;;;;;;28.15;18.33;;;;;;;-0.50;94.42;102469.47;4992923;28;20082;-50
2021/11/23 00:20:42;;;;;;;24.80;16.95;;;;;;;-0.68;94.44;102468.22;4992954;28;20600;-50
2021/11/23 00:23:11;;;;;;;27.33;18.30;;;;;;;-0.72;95.03;102476.91;4993174;28;20179;-52
2021/11/23 00:25:39;;;;;;;35.90;19.52;;;;;;;-0.75;94.22;102467.53;4993032;28;20050;-53
2021/11/23 00:28:06;;;;;;;29.88;20.15;;;;;;;-0.81;95.15;102471.97;4992832;28;20050;-50
2021/11/23 00:30:34;;;;;;;38.30;20.95;;;;;;;-0.85;94.43;102467.78;4992707;28;20054;-47
2021/11/23 00:33:02;;;;;;;30.65;20.42;;;;;;;-0.89;94.70;102469.59;4992490;28;20478;-47
2021/11/23 00:35:29;;;;;;;29.90;19.40;;;;;;;-0.89;94.99;102463.59;4992117;28;20050;-48
2021/11/23 00:37:56;;;;;;;31.85;20.13;;;;;;;-0.97;94.58;102465.53;4992158;28;20082;-47
2021/11/23 00:40:24;;;;;;;31.10;20.15;;;;;;;-1.00;94.86;102466.47;4989536;28;20054;-50
2021/11/23 00:42:57;;;;;;;31.65;19.77;;;;;;;-1.05;94.83;102469.16;4992613;28;20153;-50
2021/11/23 00:45:23;;;;;;;31.67;20.75;;;;;;;-1.07;95.02;102460.63;4992369;28;20050;-48
2021/11/23 00:47:50;;;;;;;32.50;20.70;;;;;;;-1.04;95.65;102454.56;4992064;28;20051;-50
2021/11/23 00:50:18;;;;;;;28.73;20.20;;;;;;;-1.03;95.43;102454.53;4992165;28;20050;-52
2021/11/23 00:52:45;;;;;;;36.30;21.35;;;;;;;-0.98;95.41;102458.72;4992372;28;20377;-53
2021/11/23 00:55:12;;;;;;;33.00;21.05;;;;;;;-0.84;95.64;102461.78;4992092;28;20129;-46
2021/11/23 00:57:40;;;;;;;34.45;21.67;;;;;;;-0.98;95.26;102458.72;4991730;28;20054;-48
2021/11/23 01:00:10;;;;;;;34.60;22.48;;;;;;;-1.06;95.14;102456.34;4991515;28;20530;-47
2021/11/23 01:02:38;;;;;;;42.33;24.88;;;;;;;-1.05;95.13;102461.44;4991732;28;20101;-48
2021/11/23 01:05:06;;;;;;;40.28;24.75;;;;;;;-1.05;95.63;102458.88;4991659;28;20088;-47
2021/11/23 01:07:33;;;;;;;38.42;23.58;;;;;;;-1.06;95.95;102453.75;4991799;28;20145;-47
2021/11/23 01:10:00;;;;;;;36.72;22.27;;;;;;;-0.99;95.07;102454.47;4991794;28;20086;-53
2021/11/23 01:12:28;;;;;;;36.85;22.75;;;;;;;-1.06;96.04;102449.47;4991725;28;20085;-48
2021/11/23 01:14:55;;;;;;;41.33;24.67;;;;;;;-1.09;96.00;102454.69;4992058;28;20081;-49
2021/11/23 01:17:24;;;;;;;40.03;23.30;;;;;;;-1.10;96.07;102460.69;4991787;28;20050;-53
2021/11/23 01:19:51;;;;;;;40.40;22.80;;;;;;;-1.12;96.03;102451.34;4991872;28;20508;-53
2021/11/23 01:22:18;;;;;;;37.42;23.08;;;;;;;-1.17;95.76;102453.16;4991329;28;20050;-52
2021/11/23 01:24:46;;;;;;;37.83;22.65;;;;;;;-1.19;95.77;102460.91;4991641;28;20062;-54
2021/11/23 01:27:13;;;;;;;39.78;22.63;;;;;;;-1.24;95.60;102467.88;4991501;28;20046;-50
2021/11/23 01:29:40;;;;;;;36.85;21.63;;;;;;;-1.20;96.16;102469.50;4991374;28;20579;-47
2021/11/23 01:32:08;;;;;;;39.25;22.95;;;;;;;-1.21;95.70;102461.81;5003059;23;20519;-50
2021/11/23 01:34:36;;;;;;;31.98;20.45;;;;;;;-1.13;95.73;102447.94;4967999;28;20106;-50
2021/11/23 01:37:03;;;;;;;33.17;20.75;;;;;;;-1.04;96.48;102454.56;4953304;28;20280;-50
2021/11/23 01:39:40;;;;;;;30.02;18.77;;;;;;;-0.99;95.95;102459.59;4953587;28;20051;-54
2021/11/23 01:42:08;;;;;;;37.05;19.92;;;;;;;-1.11;96.21;102453.88;4953694;28;20470;-52
2021/11/23 01:44:35;;;;;;;31.92;19.08;;;;;;;-1.13;96.39;102453.06;4953287;28;20133;-50
2021/11/23 01:47:02;;;;;;;33.15;19.58;;;;;;;-1.06;96.17;102458.91;4953299;28;20083;-49
2021/11/23 01:49:28;;;;;;;28.58;19.25;;;;;;;-0.99;96.69;102457.88;4953351;28;20134;-48
2021/11/23 01:51:57;;;;;;;25.70;16.70;;;;;;;-0.92;96.44;102453.41;4957398;28;20196;-51
2021/11/23 01:54:23;;;;;;;23.77;17.02;;;;;;;-0.96;95.83;102449.25;4956989;28;20095;-50
2021/11/23 01:56:50;;;;;;;28.15;17.52;;;;;;;-1.03;96.44;102448.56;4956822;28;20043;-52
2021/11/23 01:59:17;;;;;;;28.15;17.77;;;;;;;-0.94;96.47;102450.88;4956812;28;20051;-49
2021/11/23 02:01:44;;;;;;;29.95;18.30;;;;;;;-0.91;96.73;102452.53;4957243;28;20478;-50
2021/11/23 02:04:12;;;;;;;31.30;17.88;;;;;;;-0.83;96.77;102448.03;4956682;28;20091;-54
2021/11/23 02:06:39;;;;;;;27.52;16.63;;;;;;;-0.82;96.25;102448.00;4956823;28;20048;-51
2021/11/23 02:09:07;;;;;;;29.75;18.15;;;;;;;-0.81;96.49;102448.84;4956699;28;20056;-49
2021/11/23 02:11:34;;;;;;;33.25;18.25;;;;;;;-0.79;96.23;102449.66;4956867;28;20051;-52
2021/11/23 02:14:00;;;;;;;31.73;18.50;;;;;;;-0.80;95.90;102455.66;4957041;28;20459;-50
2021/11/23 02:16:27;;;;;;;28.35;17.42;;;;;;;-0.94;96.69;102452.59;4956875;28;20473;-50
2021/11/23 02:18:54;;;;;;;28.80;17.17;;;;;;;-1.03;95.78;102459.69;4956506;28;20087;-50
2021/11/23 02:21:22;;;;;;;28.10;16.65;;;;;;;-1.09;96.67;102458.97;4956941;28;20079;-51
2021/11/23 02:23:49;;;;;;;25.70;16.45;;;;;;;-1.06;96.19;102457.19;4956572;28;20051;-55
2021/11/23 02:26:15;;;;;;;25.27;16.75;;;;;;;-1.09;96.17;102456.41;4956282;28;20141;-52
2021/11/23 02:28:43;;;;;;;26.45;17.48;;;;;;;-1.08;96.55;102448.66;4956534;28;20084;-49
2021/11/23 02:31:10;;;;;;;28.30;17.80;;;;;;;-1.16;96.59;102455.69;4956538;28;20469;-50
2021/11/23 02:33:38;;;;;;;30.80;18.88;;;;;;;-1.17;96.40;102459.16;4956485;28;20055;-50
2021/11/23 02:36:07;;;;;;;30.60;19.13;;;;;;;-1.13;96.98;102452.22;4956207;28;20122;-52
2021/11/23 02:38:36;;;;;;;29.35;18.58;;;;;;;-1.16;96.31;102457.44;4956084;28;20051;-54
2021/11/23 02:41:05;;;;;;;28.70;18.80;;;;;;;-1.15;96.79;102441.13;4956189;28;20107;-49
2021/11/23 02:43:34;;;;;;;28.95;17.35;;;;;;;-1.24;96.24;102442.19;4956548;28;20059;-51
2021/11/23 02:46:01;;;;;;;28.30;18.38;;;;;;;-1.25;96.20;102445.66;4956189;28;20066;-53
2021/11/23 02:48:48;;;;;;;27.35;17.75;;;;;;;-1.23;96.21;102454.16;4955724;28;20134;-51
2021/11/23 02:51:16;;;;;;;27.98;17.58;;;;;;;-1.33;96.28;102452.69;4956040;28;20074;-53
2021/11/23 02:53:45;;;;;;;27.52;17.52;;;;;;;-1.41;96.85;102452.84;4955996;28;20062;-51
2021/11/23 02:56:13;;;;;;;28.60;17.30;;;;;;;-1.43;96.37;102451.22;4955911;28;20102;-54
2021/11/23 02:58:41;;;;;;;29.90;17.35;;;;;;;-1.43;96.21;102451.22;4955697;28;20094;-50
2021/11/23 03:01:09;;;;;;;29.77;18.85;;;;;;;-1.36;96.31;102452.75;4955590;28;20062;-50
2021/11/23 03:03:36;;;;;;;26.95;17.80;;;;;;;-1.40;96.86;102456.25;4955588;28;20137;-51
2021/11/23 03:06:03;;;;;;;30.90;18.77;;;;;;;-1.45;97.29;102443.56;4955891;28;20086;-50
2021/11/23 03:08:30;;;;;;;28.13;17.98;;;;;;;-1.52;97.01;102456.56;4955452;28;20422;-50
2021/11/23 03:11:01;;;;;;;30.48;18.98;;;;;;;-1.54;96.83;102448.06;4955730;28;20126;-54
2021/11/23 03:13:28;;;;;;;30.70;19.02;;;;;;;-1.59;97.40;102448.16;4955739;28;20207;-50
2021/11/23 03:15:55;;;;;;;28.77;18.80;;;;;;;-1.54;97.09;102451.47;4956048;28;20490;-51
2021/11/23 03:18:45;;;;;;;30.55;19.08;;;;;;;-1.55;97.80;102451.50;4955751;28;20051;-53
2021/11/23 03:21:13;;;;;;;28.73;18.13;;;;;;;-1.52;97.68;102447.13;4955905;28;20121;-51
2021/11/23 03:23:41;;;;;;;33.60;18.73;;;;;;;-1.57;97.54;102440.41;4955676;28;20055;-51
2021/11/23 03:26:13;;;;;;;29.52;19.20;;;;;;;-1.57;97.61;102442.97;4955400;28;20388;-51
2021/11/23 03:28:58;;;;;;;;;;;;;;;-1.46;96.77;102441.03;4955440;28;20480;-55
2021/11/23 03:31:46;;;;;;;28.98;18.25;;;;;;;-1.53;96.75;102442.88;4955651;28;19928;-51
2021/11/23 03:34:14;;;;;;;32.03;20.38;;;;;;;-1.58;96.99;102431.88;4955414;28;20051;-51
2021/11/23 03:36:40;;;;;;;33.08;19.33;;;;;;;-1.65;97.26;102440.59;4954742;28;20055;-53
2021/11/23 03:39:08;;;;;;;34.58;20.75;;;;;;;-1.59;97.23;102439.59;4955172;28;20117;-50
2021/11/23 03:41:37;;;;;;;29.98;18.95;;;;;;;-1.63;97.54;102437.97;4955417;28;20165;-51
2021/11/23 03:44:04;;;;;;;29.65;19.08;;;;;;;-1.67;97.20;102437.19;4955296;28;20087;-51
2021/11/23 03:46:31;;;;;;;33.90;18.95;;;;;;;-1.60;97.39;102438.75;4955458;28;20085;-49
2021/11/23 03:48:58;;;;;;;30.05;18.30;;;;;;;-1.68;96.72;102435.50;4952060;28;20047;-51
2021/11/23 03:51:25;;;;;;;32.08;19.75;;;;;;;-1.72;97.24;102429.59;4954476;28;20104;-52
2021/11/23 03:53:52;;;;;;;48.50;27.15;;;;;;;-1.72;97.30;102434.72;4954169;28;20062;-52
2021/11/23 03:56:19;;;;;;;37.10;20.60;;;;;;;-1.72;97.01;102429.59;4953221;28;20505;-52
2021/11/23 03:58:48;;;;;;;32.17;20.50;;;;;;;-1.68;97.53;102440.66;4956341;28;20138;-52
2021/11/23 04:01:15;;;;;;;30.90;19.50;;;;;;;-1.61;97.26;102438.78;4973259;28;20125;-53
2021/11/23 04:03:41;;;;;;;31.52;19.52;;;;;;;-1.48;97.50;102442.78;4973147;28;20046;-50
2021/11/23 04:06:08;;;;;;;32.90;19.30;;;;;;;-1.44;97.12;102445.25;4973355;28;20058;-52
2021/11/23 04:08:35;;;;;;;29.75;18.60;;;;;;;-1.49;97.10;102447.06;4973044;28;20047;-48
2021/11/23 04:11:01;;;;;;;32.08;19.38;;;;;;;-1.39;96.94;102443.38;4973599;28;20141;-51
2021/11/23 04:13:28;;;;;;;31.77;18.58;;;;;;;-1.31;96.33;102444.94;4972888;28;20110;-48
2021/11/23 04:15:56;;;;;;;33.38;18.48;;;;;;;-1.27;97.01;102438.84;4972996;28;20089;-50
2021/11/23 04:18:23;;;;;;;34.33;19.52;;;;;;;-1.35;96.87;102434.72;4972848;28;20126;-49
2021/11/23 04:20:50;;;;;;;33.05;19.63;;;;;;;-1.46;97.04;102435.88;4973255;28;20050;-50
2021/11/23 04:23:18;;;;;;;33.90;19.30;;;;;;;-1.53;97.28;102434.34;4973108;28;20117;-49
2021/11/23 04:25:44;;;;;;;29.15;19.05;;;;;;;-1.53;97.45;102442.03;4972541;28;20113;-52
2021/11/23 04:28:11;;;;;;;34.42;19.95;;;;;;;-1.59;97.39;102434.47;4972703;28;20473;-51
2021/11/23 04:30:38;;;;;;;30.65;19.67;;;;;;;-1.60;97.75;102437.91;4972429;28;20125;-51
2021/11/23 04:33:06;;;;;;;35.95;19.63;;;;;;;-1.69;97.49;102434.66;4972970;28;20046;-51
2021/11/23 04:35:32;;;;;;;34.78;19.48;;;;;;;-1.70;97.56;102443.25;4972164;28;20124;-51
2021/11/23 04:37:59;;;;;;;31.80;19.40;;;;;;;-1.74;97.92;102446.75;4972436;28;20047;-50
2021/11/23 04:40:53;;;;;;;29.08;19.48;;;;;;;-1.73;97.79;102451.00;4973090;28;20449;-54
2021/11/23 04:43:24;;;;;;;31.27;19.20;;;;;;;-1.67;97.97;102456.00;4973040;28;20054;-50
2021/11/23 04:45:51;;;;;;;28.40;18.83;;;;;;;-1.72;97.56;102446.72;4972546;28;20417;-51
2021/11/23 04:48:22;;;;;;;32.00;19.20;;;;;;;-1.69;97.60;102444.94;4972588;28;20075;-54
2021/11/23 04:50:50;;;;;;;32.75;19.25;;;;;;;-1.64;96.96;102438.84;4972680;28;20130;-50
2021/11/23 04:53:23;;;;;;;37.08;19.58;;;;;;;-1.64;96.75;102437.13;4972922;28;20129;-50
2021/11/23 04:55:58;;;;;;;;;;;;;;;-1.67;97.01;102440.63;4971963;28;20054;-49
2021/11/23 04:58:59;;;;;;;36.08;19.48;;;;;;;-1.57;97.27;102437.84;4972169;28;19976;-50
2021/11/23 05:01:30;;;;;;;32.08;19.15;;;;;;;-1.36;97.36;102442.47;4972337;28;20058;-50
2021/11/23 05:03:59;;;;;;;37.17;20.40;;;;;;;-1.19;96.91;102434.38;4972754;28;20050;-49
2021/11/23 05:06:30;;;;;;;32.25;19.80;;;;;;;-1.18;96.46;102436.06;4971874;28;20057;-49
2021/11/23 05:08:58;;;;;;;31.85;19.20;;;;;;;-1.17;96.75;102433.47;4972061;28;20058;-50
2021/11/23 05:11:32;;;;;;;38.95;21.63;;;;;;;-1.24;96.96;102439.63;4972186;28;20175;-51
2021/11/23 05:14:03;;;;;;;35.65;20.85;;;;;;;-1.27;97.14;102442.25;4970295;28;20247;-54
2021/11/23 05:16:31;;;;;;;34.03;19.83;;;;;;;-1.22;96.62;102443.00;4972188;28;20082;-54
2021/11/23 05:19:07;;;;;;;33.95;20.98;;;;;;;-1.17;96.61;102443.75;4971633;28;20047;-51
2021/11/23 05:21:37;;;;;;;34.97;19.85;;;;;;;-0.98;96.29;102444.16;4972255;28;20054;-53
2021/11/23 05:24:09;;;;;;;31.73;19.70;;;;;;;-0.98;96.52;102445.88;4970601;28;20145;-52
2021/11/23 05:26:38;;;;;;;33.72;19.08;;;;;;;-0.80;95.53;102448.81;4971650;28;20066;-49
2021/11/23 05:29:06;;;;;;;30.73;19.17;;;;;;;-0.86;95.56;102446.38;4971394;28;20058;-51
2021/11/23 05:31:38;;;;;;;29.58;20.02;;;;;;;-0.90;96.06;102443.94;4969254;28;20077;-51
2021/11/23 05:34:38;;;;;;;42.45;22.85;;;;;;;-0.85;96.98;102449.81;4971379;28;20141;-51
2021/11/23 05:37:45;;;;;;;30.70;19.95;;;;;;;-0.81;96.83;102451.41;4972124;28;20057;-56
2021/11/23 05:40:12;;;;;;;35.92;18.90;;;;;;;-0.86;96.41;102456.66;4972694;28;20092;-50
2021/11/23 05:42:40;;;;;;;40.60;19.95;;;;;;;-0.80;95.97;102451.38;4972687;28;20055;-52
2021/11/23 05:59:13;;;;;;;33.53;19.48;;;;;;;-0.80;95.62;102453.94;4795114;29;20097;-53
2021/11/23 06:01:40;;;;;;;35.67;20.65;;;;;;;-0.63;95.79;102455.25;4872492;29;20052;-54
2021/11/23 06:04:07;;;;;;;31.48;19.50;;;;;;;-0.72;96.01;102452.03;4916627;28;20063;-52
2021/11/23 06:06:34;;;;;;;35.90;22.02;;;;;;;-0.51;95.65;102455.78;4971314;28;20541;-52
2021/11/23 06:09:05;;;;;;;36.67;21.38;;;;;;;-0.61;95.19;102454.31;4971890;28;20224;-51
2021/11/23 06:11:32;;;;;;;35.75;20.63;;;;;;;-0.54;95.12;102453.28;4970937;28;20083;-52
2021/11/23 06:14:00;;;;;;;34.85;21.73;;;;;;;-0.55;95.51;102443.88;4972283;28;20082;-52
2021/11/23 06:16:28;;;;;;;39.92;21.70;;;;;;;-0.47;95.62;102444.50;4972220;28;20147;-54
2021/11/23 06:18:55;;;;;;;35.15;22.45;;;;;;;-0.41;95.72;102446.91;4972070;28;20062;-50
2021/11/23 06:21:22;;;;;;;38.22;23.60;;;;;;;-0.35;95.40;102451.03;4972017;28;20097;-52
2021/11/23 06:23:50;;;;;;;39.40;23.00;;;;;;;-0.37;94.86;102438.22;4972755;28;20090;-53
2021/11/23 06:26:19;;;;;;;35.83;22.63;;;;;;;-0.37;95.46;102443.38;4971716;28;20468;-51
2021/11/23 06:28:46;;;;;;;38.15;22.00;;;;;;;-0.35;95.64;102446.75;4971162;28;20497;-56
2021/11/23 06:31:26;;;;;;;35.58;23.42;;;;;;;-0.29;95.73;102444.91;4971165;28;20101;-50
2021/11/23 06:34:17;;;;;;;35.88;24.27;;;;;;;-0.24;95.17;102437.91;4971713;28;20058;-53
2021/11/23 06:39:38;;;;;;;37.63;21.92;;;;;;;-0.25;95.31;102444.78;4971222;28;20109;-52
2021/11/23 06:42:15;;;;;;;38.70;23.00;;;;;;;-0.22;95.04;102451.56;4975470;28;20057;-50
2021/11/23 06:45:15;;;;;;;39.63;23.70;;;;;;;-0.14;95.18;102460.75;4975584;28;20061;-51
2021/11/23 06:47:56;;;;;;;34.72;22.45;;;;;;;-0.30;94.68;102463.78;4975230;28;20544;-51
2021/11/23 06:50:23;;;;;;;34.47;22.35;;;;;;;-0.35;94.87;102457.03;4975403;28;20057;-52
2021/11/23 06:52:49;;;;;;;35.08;22.17;;;;;;;-0.37;95.41;102469.09;4975703;28;20089;-51
2021/11/23 06:55:16;;;;;;;36.72;23.30;;;;;;;-0.29;95.71;102461.19;4975623;28;20090;-49
2021/11/23 06:57:43;;;;;;;36.78;21.70;;;;;;;-0.16;95.03;102466.84;4975767;28;20101;-50
2021/11/23 07:00:11;;;;;;;35.38;22.90;;;;;;;-0.14;94.75;102467.63;4975179;28;20086;-49
2021/11/23 07:02:37;;;;;;;41.38;22.45;;;;;;;-0.13;94.62;102467.59;4974946;28;20062;-51
2021/11/23 07:05:06;;;;;;;37.83;23.10;;;;;;;-0.12;94.90;102464.13;4974808;28;20086;-49
2021/11/23 07:07:33;;;;;;;37.72;23.17;;;;;;;-0.04;94.57;102475.06;4973585;28;20055;-52
2021/11/23 07:10:01;;;;;;;36.85;23.10;;;;;;;-0.15;95.21;102478.81;4973919;28;20413;-50
2021/11/23 07:12:28;;;;;;;34.47;23.50;;;;;;;-0.11;95.32;102478.69;4974082;28;20141;-51
2021/11/23 07:14:57;;;;;;;39.70;23.83;;;;;;;-0.10;95.67;102487.25;4974205;28;20097;-52
2021/11/23 07:17:24;;;;;;;35.78;23.30;;;;;;;-0.10;95.55;102484.69;4974356;28;20051;-50
2021/11/23 07:19:51;;;;;;;36.80;23.70;;;;;;;0.03;95.71;102477.44;4974057;28;20082;-49
2021/11/23 07:22:19;;;;;;;40.38;23.98;;;;;;;0.14;95.39;102486.53;4974989;28;20058;-53
2021/11/23 07:24:46;;;;;;;38.30;24.25;;;;;;;0.30;95.00;102481.81;4974925;28;20093;-52
2021/11/23 07:27:12;;;;;;;33.97;23.23;;;;;;;0.22;94.66;102482.03;4974674;28;20102;-48
2021/11/23 07:29:39;;;;;;;40.67;23.73;;;;;;;0.22;94.57;102484.59;4974515;28;20489;-50
2021/11/23 07:32:07;;;;;;;37.08;23.70;;;;;;;0.23;95.25;102488.00;4974929;28;20113;-52
2021/11/23 07:34:34;;;;;;;41.75;24.00;;;;;;;0.18;94.66;102487.31;5058396;23;20176;-55
2021/11/23 07:37:01;;;;;;;41.10;24.05;;;;;;;0.19;94.60;102489.84;5012824;28;20133;-51
2021/11/23 07:39:29;;;;;;;39.03;23.25;;;;;;;0.22;95.13;102489.75;5012820;28;20077;-46
2021/11/23 07:41:56;;;;;;;46.78;26.50;;;;;;;0.40;95.02;102487.53;5013198;28;20049;-46
2021/11/23 07:44:23;;;;;;;41.95;25.85;;;;;;;0.45;94.37;102480.50;5012847;28;20096;-48
2021/11/23 07:46:50;;;;;;;39.55;25.10;;;;;;;0.31;94.55;102492.06;5012848;28;20077;-50
2021/11/23 07:49:17;;;;;;;36.22;23.58;;;;;;;0.32;94.68;102496.31;5011741;28;20045;-49
2021/11/23 07:51:44;;;;;;;36.80;23.48;;;;;;;0.34;95.23;102496.28;5012855;28;20085;-47
2021/11/23 07:54:11;;;;;;;38.58;23.73;;;;;;;0.30;94.99;102497.25;5012349;28;20124;-47
2021/11/23 07:56:39;;;;;;;42.03;24.25;;;;;;;0.38;95.60;102497.03;5012487;28;20495;-50
2021/11/23 07:59:06;;;;;;;39.08;24.50;;;;;;;0.52;95.32;102489.72;5012464;28;20077;-47
2021/11/23 08:01:32;;;;;;;39.75;23.80;;;;;;;0.77;94.77;102493.25;5011961;28;20049;-52
2021/11/23 08:03:59;;;;;;;42.15;24.52;;;;;;;0.72;94.02;102478.81;5012565;28;20045;-54
2021/11/23 08:06:26;;;;;;;37.47;24.75;;;;;;;0.64;93.97;102486.78;5012453;28;20132;-52
2021/11/23 08:08:52;;;;;;;41.47;23.70;;;;;;;0.64;94.17;102487.63;5011139;28;20086;-49
2021/11/23 08:11:20;;;;;;;44.67;24.20;;;;;;;0.89;94.19;102492.88;5012795;28;20049;-51
2021/11/23 08:13:48;;;;;;;40.72;24.98;;;;;;;1.07;93.08;102495.72;5012705;28;20049;-56
2021/11/23 08:16:15;;;;;;;63.45;27.35;;;;;;;1.15;93.16;102498.91;5012552;28;20441;-55
2021/11/23 08:18:42;;;;;;;54.95;25.38;;;;;;;1.17;92.76;102507.44;5012040;28;20500;-52
2021/11/23 08:21:09;;;;;;;55.55;25.83;;;;;;;1.27;93.04;102498.50;5012351;28;20049;-48
2021/11/23 08:23:36;;;;;;;42.13;24.40;;;;;;;1.30;92.84;102508.72;5012395;28;20112;-52
2021/11/23 08:26:03;;;;;;;41.30;22.52;;;;;;;1.25;92.57;102501.13;5011747;28;20050;-48
2021/11/23 08:28:30;;;;;;;44.53;24.13;;;;;;;1.43;92.40;102504.81;5012191;28;20089;-51
2021/11/23 08:30:59;;;;;;;41.15;24.00;;;;;;;1.05;93.02;102508.66;5012482;28;20057;-47
2021/11/23 08:33:26;;;;;;;39.75;22.80;;;;;;;0.98;93.47;102510.59;5012019;28;20046;-47
2021/11/23 08:35:53;;;;;;;39.10;23.63;;;;;;;1.08;93.66;102512.88;5012636;28;20408;-50
2021/11/23 08:38:20;;;;;;;37.90;23.85;;;;;;;1.25;93.33;102513.19;5011968;28;20100;-48
2021/11/23 08:40:47;;;;;;;39.00;22.77;;;;;;;1.27;93.10;102519.13;5012184;28;20050;-53
2021/11/23 08:43:15;;;;;;;36.00;22.83;;;;;;;1.51;92.88;102515.72;5012314;28;20061;-49
2021/11/23 08:45:45;;;;;;;39.47;23.40;;;;;;;1.60;91.95;102512.84;5011622;28;20041;-47
2021/11/23 08:48:14;;;;;;;41.22;22.17;;;;;;;1.71;91.60;102514.22;5011446;28;20108;-46
2021/11/23 08:50:41;;;;;;;41.13;23.30;;;;;;;1.62;91.56;102516.22;5011478;28;20073;-49
2021/11/23 08:53:08;;;;;;;37.80;23.35;;;;;;;1.52;91.69;102514.81;5006125;28;20492;-51
2021/11/23 08:55:36;;;;;;;43.47;24.45;;;;;;;1.56;91.59;102528.47;5011583;28;20085;-49
2021/11/23 08:58:04;;;;;;;37.42;22.42;;;;;;;1.41;91.97;102522.09;5011527;28;20137;-47
2021/11/23 09:00:31;;;;;;;39.95;23.42;;;;;;;1.55;91.78;102519.03;5010811;28;20042;-49
2021/11/23 09:02:59;;;;;;;36.78;23.17;;;;;;;1.81;92.04;102523.31;5011523;28;20149;-50
2021/11/23 09:05:31;;;;;;;40.53;23.77;;;;;;;1.98;91.17;102518.38;5011625;28;20060;-49
2021/11/23 09:08:00;;;;;;;38.10;23.42;;;;;;;2.07;90.77;102523.22;5011730;28;20412;-50
2021/11/23 09:10:28;;;;;;;36.10;22.90;;;;;;;2.23;90.59;102513.19;5011521;28;20137;-50
2021/11/23 09:12:58;;;;;;;42.13;23.67;;;;;;;1.94;90.15;102521.97;5011317;28;20137;-51
2021/11/23 09:15:26;;;;;;;37.30;24.00;;;;;;;1.63;91.59;102530.78;5011606;28;20116;-50
2021/11/23 09:17:55;;;;;;;41.08;23.58;;;;;;;1.62;91.90;102542.00;5011168;28;20096;-54
2021/11/23 09:20:22;;;;;;;43.40;24.35;;;;;;;1.59;91.42;102525.78;5011170;28;20046;-54
2021/11/23 09:22:51;;;;;;;39.42;23.67;;;;;;;1.84;91.21;102530.97;5011354;28;20046;-48
2021/11/23 09:25:18;;;;;;;40.63;24.23;;;;;;;1.99;90.80;102522.66;5011250;28;20057;-50
2021/11/23 09:27:46;;;;;;;37.10;23.33;;;;;;;2.23;91.02;102521.78;5011027;28;20046;-50
2021/11/23 09:30:15;;;;;;;40.22;24.17;;;;;;;2.31;90.45;102526.66;5011282;28;20053;-50
2021/11/23 09:32:43;;;;;;;46.63;23.98;;;;;;;2.51;89.91;102521.56;5010043;28;20108;-52
2021/11/23 09:35:13;;;;;;;38.45;23.63;;;;;;;2.56;89.09;102522.25;4998737;28;20074;-53
2021/11/23 09:37:40;;;;;;;49.45;23.63;;;;;;;2.50;88.81;102527.66;5005431;28;20073;-52
2021/11/23 09:40:10;;;;;;;43.92;23.88;;;;;;;2.55;88.84;102540.41;5010390;28;20468;-51
2021/11/23 09:42:37;;;;;;;43.03;23.20;;;;;;;2.26;89.02;102538.91;5009390;28;20061;-48
2021/11/23 09:45:06;;;;;;;39.75;24.38;;;;;;;2.36;89.21;102531.66;5010825;28;20072;-50
2021/11/23 09:47:33;;;;;;;40.22;22.55;;;;;;;2.20;89.36;102534.81;5011549;28;20054;-47
2021/11/23 09:50:03;;;;;;;38.85;23.08;;;;;;;2.21;89.86;102538.22;5010035;28;20449;-49
2021/11/23 09:52:30;;;;;;;39.10;23.35;;;;;;;2.40;89.85;102528.88;5011881;28;20070;-52
2021/11/23 09:54:58;;;;;;;39.97;23.15;;;;;;;2.67;88.97;102516.69;5010689;28;20049;-48
2021/11/23 09:57:26;;;;;;;41.42;22.88;;;;;;;2.83;88.83;102517.78;5012013;28;20058;-49
2021/11/23 09:59:53;;;;;;;40.75;23.33;;;;;;;2.98;88.00;102521.47;5010953;28;20492;-49
2021/11/23 10:02:33;;;;;;;39.75;23.65;;;;;;;3.02;87.54;102523.03;5011578;28;20077;-50
2021/11/23 10:05:03;;;;;;;41.10;23.02;;;;;;;2.87;87.84;102524.47;5011051;28;20214;-48
2021/11/23 10:07:41;;;;;;;44.58;23.25;;;;;;;2.98;88.59;102524.91;5011178;28;20053;-50
2021/11/23 10:10:17;;;;;;;42.53;23.02;;;;;;;3.19;87.43;102517.19;5011528;28;20048;-52
2021/11/23 10:12:57;;;;;;;41.53;23.42;;;;;;;3.28;86.72;102522.00;5015338;28;20447;-53
2021/11/23 10:15:25;;;;;;;38.95;21.65;;;;;;;3.18;87.26;102515.50;5015098;28;20404;-49
2021/11/23 10:17:54;;;;;;;43.38;23.83;;;;;;;3.53;87.00;102514.03;5014996;28;20058;-50
2021/11/23 10:20:32;;;;;;;37.35;22.98;;;;;;;3.66;86.71;102523.81;5014790;28;20052;-49
2021/11/23 10:23:12;;;;;;;43.95;22.30;;;;;;;3.74;85.95;102518.31;5014975;28;20078;-49
2021/11/23 10:25:40;;;;;;;35.53;22.15;;;;;;;3.83;85.44;102524.81;5014521;28;20419;-49
2021/11/23 10:28:10;;;;;;;50.35;23.90;;;;;;;3.84;83.65;102524.75;5015161;28;20507;-49
2021/11/23 10:30:42;;;;;;;42.25;22.50;;;;;;;3.69;84.12;102517.66;5014914;28;20057;-50
2021/11/23 10:33:09;;;;;;;39.58;22.95;;;;;;;3.84;84.72;102513.56;5014440;28;20056;-50
2021/11/23 10:35:39;;;;;;;35.88;21.00;;;;;;;3.67;84.88;102516.88;5015173;28;20061;-48
2021/11/23 10:38:08;;;;;;;36.50;22.05;;;;;;;3.56;85.41;102517.34;5015118;28;20180;-54
2021/11/23 10:40:37;;;;;;;34.75;20.92;;;;;;;3.55;85.86;102518.25;5014596;28;20046;-51
2021/11/23 10:43:10;;;;;;;38.63;23.15;;;;;;;3.79;85.41;102515.50;5014349;28;20117;-49
2021/11/23 10:45:39;;;;;;;37.55;22.95;;;;;;;3.91;85.62;102514.97;5014858;28;20085;-50
2021/11/23 10:48:07;;;;;;;41.83;23.10;;;;;;;4.10;84.45;102518.44;5013883;28;20085;-50
2021/11/23 10:50:36;;;;;;;38.85;23.25;;;;;;;4.00;84.40;102514.56;5014436;28;20049;-51
2021/11/23 10:53:08;;;;;;;35.35;22.15;;;;;;;3.98;84.56;102508.63;5014362;28;20053;-53
2021/11/23 10:55:40;;;;;;;43.20;22.90;;;;;;;3.83;84.45;102514.47;5014504;28;20060;-51
2021/11/23 10:58:13;;;;;;;35.75;22.08;;;;;;;3.93;84.45;102510.56;5013856;28;20080;-54
2021/11/23 11:00:43;;;;;;;40.60;22.58;;;;;;;4.08;83.23;102501.28;5013953;28;20056;-53
2021/11/23 11:03:12;;;;;;;35.80;22.65;;;;;;;4.13;84.24;102505.34;5014467;28;20425;-49
2021/11/23 11:05:41;;;;;;;40.30;24.08;;;;;;;4.16;83.95;102505.22;5013833;28;20485;-51
2021/11/23 11:08:09;;;;;;;41.25;21.55;;;;;;;4.01;85.15;102511.06;5013886;28;20126;-51
2021/11/23 11:10:38;;;;;;;40.17;23.08;;;;;;;3.93;85.25;102510.56;5013807;28;20487;-52
2021/11/23 11:13:07;;;;;;;35.28;21.98;;;;;;;3.98;84.95;102508.63;5013466;28;20074;-53
2021/11/23 11:15:40;;;;;;;36.15;22.42;;;;;;;4.00;85.33;102504.22;5013842;28;20516;-51
2021/11/23 11:18:11;;;;;;;38.22;23.58;;;;;;;3.99;86.62;102499.94;5013357;28;20050;-51
2021/11/23 11:20:44;;;;;;;36.95;23.17;;;;;;;4.23;86.59;102493.66;5013556;28;20108;-50
2021/11/23 11:23:14;;;;;;;44.08;24.23;;;;;;;4.32;85.91;102485.44;5012594;28;20085;-50
2021/11/23 11:25:58;;;;;;;52.58;26.35;;;;;;;4.32;87.58;102482.84;5013962;28;20128;-51
2021/11/23 11:28:39;;;;;;;44.88;26.92;;;;;;;4.51;87.87;102474.22;5012967;28;20128;-49
2021/11/23 11:31:08;;;;;;;48.85;26.15;;;;;;;4.59;89.05;102474.72;5012870;28;20038;-49
2021/11/23 11:33:36;;;;;;;45.25;26.58;;;;;;;4.68;88.63;102474.28;5012619;28;20054;-49
2021/11/23 11:36:03;;;;;;;46.85;27.52;;;;;;;4.85;88.83;102474.28;5012920;28;20042;-51
2021/11/23 11:38:43;;;;;;;42.78;26.65;;;;;;;4.80;89.16;102467.66;5012818;28;20050;-48